Time;durP1;ratioP1;P1;durP2;ratioP2;P2;SDS_P1;SDS_P2;PMS_P1;PMS_P2;Temp;Humidity;BMP_temperature;BMP_pressure;BME280_temperature;BME280_humidity;BME280_pressure;Samples;Min_cycle;Max_cycle;Signal;HPM_P1;HPM_P2
2021/05/29 07:11:44;;;;;;;2.95;2.15;;;;;;;17.72;100.00;100069.44;1852973;77;22908;-45
2021/05/29 07:14:29;;;;;;;3.22;2.25;;;;;;;17.83;100.00;100073.45;1788948;80;21007;-44
2021/05/29 07:17:15;;;;;;;4.37;2.98;;;;;;;17.94;100.00;100073.84;1788991;79;21031;-45
2021/05/29 07:23:43;;;;;;;2.85;1.75;;;;;;;18.02;100.00;100080.67;1848987;77;22518;-85
2021/05/29 07:26:28;;;;;;;2.92;2.62;;;;;;;17.97;100.00;100090.55;1802170;78;21022;-86
2021/05/29 07:29:13;;;;;;;5.08;2.98;;;;;;;17.93;100.00;100094.36;1789017;80;21575;-85
2021/05/29 07:31:59;;;;;;;3.22;2.92;;;;;;;17.89;100.00;100093.41;1775172;79;20985;-82
2021/05/29 07:34:44;;;;;;;3.62;2.27;;;;;;;17.89;100.00;100096.17;1775193;80;21024;-83
2021/05/29 07:37:30;;;;;;;3.92;3.02;;;;;;;17.89;100.00;100092.02;1774168;80;20992;-83
2021/05/29 07:42:28;;;;;;;3.72;2.37;;;;;;;17.97;100.00;100096.08;1804917;77;22324;-82
2021/05/29 07:45:15;;;;;;;4.83;2.95;;;;;;;17.96;100.00;100086.19;1777760;78;21031;-86
2021/05/29 07:48:01;;;;;;;5.35;3.12;;;;;;;18.05;100.00;100088.86;1777978;79;21594;-86
2021/05/29 07:50:59;;;;;;;4.47;3.55;;;;;;;18.19;100.00;100084.44;1773578;79;21592;-83
2021/05/29 07:53:45;;;;;;;6.37;3.20;;;;;;;18.35;100.00;100081.28;1742534;80;21541;-82
2021/05/29 07:56:30;;;;;;;4.80;3.00;;;;;;;18.51;100.00;100054.35;1756760;80;21569;-86
2021/05/29 07:59:17;;;;;;;4.35;2.80;;;;;;;18.72;100.00;100088.30;1755226;81;21021;-85
2021/05/29 08:02:04;;;;;;;5.80;3.17;;;;;;;18.93;100.00;100085.47;1752895;81;21029;-86
2021/05/29 08:04:49;;;;;;;7.50;4.17;;;;;;;19.12;100.00;100082.14;1699374;83;21564;-83
2021/05/29 08:07:34;;;;;;;6.90;4.17;;;;;;;19.12;100.00;100082.14;1764086;79;21071;-86
2021/05/29 08:10:19;;;;;;;6.03;3.40;;;;;;;19.18;100.00;100084.90;1764097;80;21040;-82
2021/05/29 08:13:06;;;;;;;7.00;4.50;;;;;;;19.37;100.00;100085.71;1764181;80;20985;-82
2021/05/29 08:15:51;;;;;;;5.17;3.05;;;;;;;19.37;100.00;100085.71;1763979;80;21068;-83
2021/05/29 08:18:36;;;;;;;7.15;4.08;;;;;;;19.47;100.00;100083.05;1763877;80;21041;-82
2021/05/29 08:21:22;;;;;;;6.45;3.10;;;;;;;19.49;100.00;100084.90;1763994;79;21020;-82
2021/05/29 08:24:09;;;;;;;5.47;3.10;;;;;;;19.45;100.00;100085.36;1764255;79;21049;-83
2021/05/29 08:26:55;;;;;;;5.10;2.50;;;;;;;19.48;100.00;100083.27;1764640;80;21862;-83
2021/05/29 08:29:40;;;;;;;4.15;2.62;;;;;;;19.41;100.00;100081.66;1699038;83;21609;-82
2021/05/29 08:32:25;;;;;;;7.85;3.85;;;;;;;19.27;100.00;100078.67;1741182;81;21024;-82
2021/05/29 08:35:10;;;;;;;6.53;3.70;;;;;;;19.31;100.00;100077.39;1698391;82;21030;-82
2021/05/29 08:37:55;;;;;;;5.22;2.85;;;;;;;19.40;100.00;100074.52;1762912;80;21036;-82
2021/05/29 08:40:40;;;;;;;4.65;3.58;;;;;;;19.51;100.00;100068.70;1698490;83;21253;-82
2021/05/29 08:43:25;;;;;;;4.08;2.62;;;;;;;19.62;100.00;100061.54;1708616;82;21487;-83
2021/05/29 08:46:11;;;;;;;3.52;2.67;;;;;;;19.72;100.00;100063.05;1709380;82;20962;-82
2021/05/29 08:48:57;;;;;;;4.35;2.87;;;;;;;19.71;100.00;100065.02;1711142;82;21000;-83
2021/05/29 08:51:42;;;;;;;8.73;3.25;;;;;;;19.71;100.00;100065.61;1710702;82;21059;-82
2021/05/29 08:54:30;;;;;;;6.10;4.00;;;;;;;19.80;100.00;100063.48;1706818;84;21005;-82
2021/05/29 08:57:17;;;;;;;4.20;2.83;;;;;;;20.03;100.00;100061.00;1707192;82;21017;-82
2021/05/29 09:00:06;;;;;;;5.37;3.00;;;;;;;20.15;100.00;100065.67;1706688;84;21033;-82
2021/05/29 09:03:05;;;;;;;4.03;3.52;;;;;;;20.30;100.00;100060.77;1707888;82;21084;-81
2021/05/29 09:05:53;;;;;;;7.85;4.70;;;;;;;20.50;100.00;100061.70;1707552;82;21097;-83
2021/05/29 09:08:59;;;;;;;5.35;3.00;;;;;;;20.67;100.00;100062.53;1707987;81;21033;-82
2021/05/29 09:11:58;;;;;;;4.25;2.52;;;;;;;20.66;99.93;100074.81;1708710;82;21084;-82
2021/05/29 09:14:45;;;;;;;6.28;2.77;;;;;;;20.65;96.91;100077.34;1712685;82;21351;-82
2021/05/29 09:17:30;;;;;;;4.00;2.27;;;;;;;20.51;94.28;100071.63;1715545;82;21545;-82
2021/05/29 09:20:17;;;;;;;3.65;2.33;;;;;;;20.59;93.69;100077.61;1714804;82;21143;-82
2021/05/29 09:23:03;;;;;;;2.02;1.42;;;;;;;20.78;94.01;100076.12;1707492;82;21017;-82
2021/05/29 09:25:52;;;;;;;4.92;2.33;;;;;;;20.99;91.36;100068.34;1696093;84;21020;-82
2021/05/29 09:28:38;;;;;;;4.37;2.37;;;;;;;21.14;88.79;100065.89;1708382;82;21053;-82
2021/05/29 09:31:23;;;;;;;3.52;2.22;;;;;;;21.28;87.22;100066.23;1688158;82;20989;-82
2021/05/29 09:34:07;;;;;;;5.28;2.27;;;;;;;21.47;85.74;100054.41;1708931;81;21045;-82
2021/05/29 09:37:03;;;;;;;4.25;2.50;;;;;;;21.56;84.71;100060.58;1696105;82;21061;-81
2021/05/29 09:39:51;;;;;;;3.95;2.15;;;;;;;21.64;85.97;100062.92;1707466;82;21033;-82
2021/05/29 09:42:40;;;;;;;3.27;2.08;;;;;;;21.75;83.56;100058.38;1726001;82;21581;-81
2021/05/29 09:45:27;;;;;;;4.15;2.60;;;;;;;21.81;82.33;100052.77;1730367;82;21549;-84
2021/05/29 09:48:20;;;;;;;3.30;2.10;;;;;;;21.86;79.90;100053.87;1763682;80;21044;-84
2021/05/29 09:51:11;;;;;;;3.45;1.90;;;;;;;21.94;79.49;100055.41;1763534;80;21028;-84
2021/05/29 09:54:06;;;;;;;3.02;1.60;;;;;;;22.02;77.99;100051.59;1763472;79;21029;-84
2021/05/29 09:56:55;;;;;;;3.67;1.60;;;;;;;22.07;77.14;100056.86;1763618;81;21549;-84
2021/05/29 09:59:39;;;;;;;3.65;2.17;;;;;;;22.12;74.90;100052.39;1745474;81;21024;-84
2021/05/29 10:02:24;;;;;;;3.58;2.22;;;;;;;22.23;75.53;100057.63;1742726;81;21923;-84
2021/05/29 10:05:30;;;;;;;3.72;2.30;;;;;;;22.30;73.86;100052.20;1763054;81;21052;-84
2021/05/29 10:08:15;;;;;;;3.72;2.52;;;;;;;22.29;74.53;100052.55;1764097;79;21027;-84
2021/05/29 10:11:00;;;;;;;5.67;2.02;;;;;;;22.36;74.45;100054.68;1765394;80;21525;-84
2021/05/29 10:13:47;;;;;;;5.08;2.92;;;;;;;22.51;75.73;100050.98;1765312;79;21017;-81
2021/05/29 10:16:33;;;;;;;3.62;1.92;;;;;;;22.71;74.07;100048.34;1763928;80;21060;-81
2021/05/29 10:19:22;;;;;;;4.78;2.75;;;;;;;22.88;72.61;100047.64;1709532;83;21044;-81
2021/05/29 10:22:11;;;;;;;2.85;2.02;;;;;;;22.96;71.48;100045.19;1763328;81;21004;-82
2021/05/29 10:24:57;;;;;;;3.72;2.65;;;;;;;23.02;71.05;100042.34;1739705;80;21510;-81
2021/05/29 10:27:53;;;;;;;3.55;2.02;;;;;;;22.88;69.61;100042.08;1760385;79;21111;-81
2021/05/29 10:30:25;;;;;;;4.28;2.12;;;;;;;22.76;69.82;100043.86;1758951;81;21090;-80
2021/05/29 10:33:12;;;;;;;4.17;2.70;;;;;;;22.83;70.44;100038.21;1747438;82;20996;-80
2021/05/29 10:35:42;;;;;;;5.05;2.60;;;;;;;22.91;69.54;100041.32;1747302;81;21063;-81
2021/05/29 10:38:09;;;;;;;7.47;3.72;;;;;;;22.99;69.00;100048.64;1747152;81;21040;-81
2021/05/29 10:40:42;;;;;;;3.55;2.10;;;;;;;22.95;69.60;100051.95;1747333;82;21029;-82
2021/05/29 10:43:21;;;;;;;4.50;2.10;;;;;;;22.82;70.28;100051.91;1768997;80;21039;-81
2021/05/29 10:45:57;;;;;;;2.15;1.82;;;;;;;22.66;71.05;100057.02;1769074;79;21037;-83
2021/05/29 10:48:25;;;;;;;3.87;2.42;;;;;;;22.50;71.97;100057.14;1729797;82;21084;-82
2021/05/29 10:51:03;;;;;;;3.47;2.15;;;;;;;22.38;72.46;100066.22;1677642;84;21032;-81
2021/05/29 10:53:52;;;;;;;2.25;1.62;;;;;;;22.32;73.11;100068.52;1762063;81;21050;-81
2021/05/29 10:56:26;;;;;;;1.42;1.32;;;;;;;22.26;73.63;100063.84;1762918;80;21044;-82
2021/05/29 10:59:14;;;;;;;2.67;1.98;;;;;;;22.28;74.29;100060.11;1762470;80;21028;-82
2021/05/29 11:01:50;;;;;;;2.22;1.50;;;;;;;22.22;73.14;100064.34;1758813;80;21400;-82
2021/05/29 11:04:22;;;;;;;1.60;1.30;;;;;;;22.11;73.21;100061.92;1732311;82;21045;-81
2021/05/29 11:07:00;;;;;;;3.75;2.00;;;;;;;22.09;72.56;100065.06;1732545;81;21066;-81
2021/05/29 11:09:35;;;;;;;3.70;2.15;;;;;;;22.08;72.43;100062.63;1732791;81;21026;-81
2021/05/29 11:12:05;;;;;;;2.98;1.90;;;;;;;22.16;72.79;100060.23;1734674;81;21086;-82
2021/05/29 11:14:54;;;;;;;2.05;1.27;;;;;;;22.28;71.88;100061.50;1732847;81;21458;-81
2021/05/29 11:17:27;;;;;;;1.60;1.47;;;;;;;22.24;71.02;100057.03;1760230;81;21044;-81
2021/05/29 11:20:19;;;;;;;1.57;1.47;;;;;;;22.20;70.30;100062.51;1754420;80;21032;-82
2021/05/29 11:22:45;;;;;;;1.75;1.50;;;;;;;22.17;70.51;100063.22;1745759;81;21032;-82
2021/05/29 11:25:15;;;;;;;2.08;1.45;;;;;;;22.17;70.25;100056.27;1746005;81;21060;-82
2021/05/29 11:27:43;;;;;;;1.55;1.45;;;;;;;22.12;69.91;100067.69;1745905;81;21056;-82
2021/05/29 11:30:15;;;;;;;1.35;1.12;;;;;;;22.04;70.08;100068.14;1746045;81;21032;-82
2021/05/29 11:35:49;;;;;;;2.87;1.62;;;;;;;21.81;70.46;100070.02;1748176;81;21234;-81
2021/05/29 11:38:30;;;;;;;2.27;1.30;;;;;;;21.56;71.20;100067.52;1746271;81;21076;-81
2021/05/29 11:41:08;;;;;;;0.90;0.80;;;;;;;21.29;71.60;100065.64;1752170;81;21570;-82
2021/05/29 11:43:39;;;;;;;2.15;1.37;;;;;;;21.08;72.97;100072.90;1760291;80;21072;-82
2021/05/29 11:46:12;;;;;;;2.50;1.55;;;;;;;20.96;73.75;100071.81;1760654;81;21043;-81
2021/05/29 11:48:41;;;;;;;;;;;;;;;20.95;74.28;100074.38;1762373;81;21541;-82
2021/05/29 11:51:12;;;;;;;2.15;0.93;;;;;;;20.92;74.47;100070.11;1762054;79;20224;-81
2021/05/29 11:53:48;;;;;;;1.75;1.10;;;;;;;20.90;74.04;100073.27;1762927;80;21036;-81
2021/05/29 11:56:18;;;;;;;0.70;0.70;;;;;;;20.87;73.41;100067.05;1763194;80;21020;-82
2021/05/29 11:58:53;;;;;;;1.67;1.02;;;;;;;20.82;73.46;100077.00;1760647;81;21562;-82
2021/05/29 12:01:33;;;;;;;2.62;0.98;;;;;;;20.82;72.76;100067.28;1761458;80;20981;-82
2021/05/29 12:04:11;;;;;;;1.67;1.00;;;;;;;20.84;72.91;100069.12;1758943;80;21061;-82
2021/05/29 12:06:48;;;;;;;1.85;1.40;;;;;;;20.87;72.89;100065.66;1760205;80;21040;-81
2021/05/29 12:09:21;;;;;;;2.33;1.10;;;;;;;20.97;72.83;100066.50;1762982;80;21033;-82
2021/05/29 12:12:07;;;;;;;1.82;1.25;;;;;;;21.04;72.04;100056.95;1762599;80;21092;-82
2021/05/29 12:14:37;;;;;;;1.25;1.15;;;;;;;21.02;71.73;100057.89;1761340;80;21013;-82
2021/05/29 12:17:09;;;;;;;1.82;1.25;;;;;;;21.00;71.58;100058.83;1762711;80;21068;-81
2021/05/29 12:19:58;;;;;;;0.75;0.60;;;;;;;21.04;71.60;100052.80;1762870;80;21036;-82
2021/05/29 12:22:27;;;;;;;1.15;0.80;;;;;;;21.11;71.24;100045.19;1762961;80;21028;-82
2021/05/29 12:25:09;;;;;;;2.47;1.05;;;;;;;21.16;71.32;100043.52;1765578;80;21037;-82
2021/05/29 12:27:43;;;;;;;0.78;0.57;;;;;;;21.13;72.31;100050.40;1706737;82;21061;-83
2021/05/29 12:30:14;;;;;;;1.15;1.05;;;;;;;21.07;73.53;100049.88;1732565;82;21028;-82
2021/05/29 12:32:42;;;;;;;0.80;0.80;;;;;;;21.14;72.73;100039.50;1743072;79;21080;-82
2021/05/29 12:35:30;;;;;;;0.65;0.65;;;;;;;21.24;72.67;100048.66;1741114;81;21044;-82
2021/05/29 12:38:15;;;;;;;0.50;0.50;;;;;;;21.33;71.98;100054.04;1760577;80;21536;-81
2021/05/29 12:41:09;;;;;;;0.78;0.78;;;;;;;21.42;71.34;100044.37;1763191;80;21033;-82
2021/05/29 12:43:41;;;;;;;0.70;0.50;;;;;;;21.67;71.12;100057.43;1763056;80;21020;-82
2021/05/29 12:46:24;;;;;;;0.78;0.33;;;;;;;21.89;69.91;100059.28;1763533;80;21040;-81
2021/05/29 12:49:14;;;;;;;0.80;0.80;;;;;;;21.89;67.95;100067.03;1762417;80;21594;-81
2021/05/29 12:51:48;;;;;;;0.78;0.72;;;;;;;21.78;69.58;100059.04;1757532;80;21624;-81
2021/05/29 12:54:15;;;;;;;0.60;0.50;;;;;;;21.68;70.20;100071.54;1741292;81;21052;-81
2021/05/29 12:56:56;;;;;;;1.22;0.70;;;;;;;21.50;69.17;100068.95;1763523;80;21061;-82
2021/05/29 12:59:27;;;;;;;0.47;0.28;;;;;;;21.33;68.47;100076.27;1763713;80;21028;-81
2021/05/29 13:07:34;;;;;;;0.28;0.28;;;;;;;21.18;69.73;100080.09;1758503;80;21082;-81
2021/05/29 13:13:07;;;;;;;0.40;0.40;;;;;;;21.20;69.71;100084.71;1732272;82;21121;-82
2021/05/29 13:15:37;;;;;;;0.30;0.30;;;;;;;21.21;69.51;100077.98;1732798;81;21053;-82
2021/05/29 13:18:16;;;;;;;0.42;0.42;;;;;;;21.16;69.69;100077.45;1731735;82;21033;-82
2021/05/29 13:20:43;;;;;;;0.50;0.30;;;;;;;21.05;69.68;100074.42;1731980;82;21022;-82
2021/05/29 13:23:10;;;;;;;0.30;0.30;;;;;;;20.88;70.30;100081.14;1733621;82;21590;-82
2021/05/29 13:25:44;;;;;;;0.45;0.37;;;;;;;20.71;70.85;100082.29;1731818;81;21621;-82
2021/05/29 13:28:16;;;;;;;0.33;0.33;;;;;;;20.50;71.67;100086.67;1732146;82;21554;-82
2021/05/29 13:30:44;;;;;;;0.20;0.20;;;;;;;20.33;71.43;100092.55;1732595;82;21026;-82
2021/05/29 13:33:14;;;;;;;0.30;0.30;;;;;;;20.18;71.20;100099.07;1712272;82;21058;-81
2021/05/29 13:35:42;;;;;;;0.10;0.10;;;;;;;20.07;72.12;100099.92;1733073;81;21022;-81
2021/05/29 13:38:09;;;;;;;0.55;0.42;;;;;;;19.93;71.95;100104.45;1733261;80;21074;-81
2021/05/29 13:40:36;;;;;;;0.20;0.20;;;;;;;19.79;72.19;100105.44;1732609;82;21046;-82
2021/05/29 13:43:03;;;;;;;0.40;0.37;;;;;;;19.70;72.25;100105.55;1733499;81;21070;-82
2021/05/29 13:45:32;;;;;;;0.50;0.30;;;;;;;19.60;73.30;100109.58;1732735;82;21153;-82
2021/05/29 13:47:58;;;;;;;0.65;0.65;;;;;;;19.53;74.85;100103.81;1737719;81;21054;-81
2021/05/29 13:50:25;;;;;;;0.30;0.30;;;;;;;19.44;73.61;100114.23;1732872;81;21034;-81
2021/05/29 13:52:54;;;;;;;0.95;0.30;;;;;;;19.39;73.27;100109.73;1732642;81;21554;-82
2021/05/29 13:55:21;;;;;;;0.30;0.30;;;;;;;19.38;73.06;100106.70;1732739;82;21029;-81
2021/05/29 13:57:47;;;;;;;0.10;0.10;;;;;;;19.37;74.28;100104.30;1733745;82;21042;-81
2021/05/29 14:00:17;;;;;;;0.85;0.33;;;;;;;19.33;74.64;100107.74;1733154;82;21556;-81
2021/05/29 14:02:44;;;;;;;0.33;0.30;;;;;;;19.31;74.85;100096.23;1732994;81;21093;-83
2021/05/29 14:05:11;;;;;;;1.25;0.40;;;;;;;19.31;74.85;100096.23;1733248;82;20999;-81
2021/05/29 14:07:38;;;;;;;0.20;0.20;;;;;;;19.34;74.42;100101.06;1732480;82;21077;-81
2021/05/29 14:10:08;;;;;;;0.65;0.45;;;;;;;19.39;74.99;100107.54;1732728;81;21101;-81
2021/05/29 14:12:37;;;;;;;0.30;0.30;;;;;;;19.42;74.52;100104.87;1732845;81;21673;-81
2021/05/29 14:15:10;;;;;;;0.20;0.20;;;;;;;19.46;74.10;100106.35;1733896;81;21309;-82
2021/05/29 14:17:38;;;;;;;0.47;0.33;;;;;;;19.46;74.10;100106.35;1732824;82;21983;-81
2021/05/29 14:20:07;;;;;;;0.45;0.42;;;;;;;19.44;73.78;100103.95;1718749;82;21029;-82
2021/05/29 14:22:35;;;;;;;0.50;0.50;;;;;;;19.44;74.18;100103.14;1733237;82;21599;-81
2021/05/29 14:25:04;;;;;;;0.57;0.42;;;;;;;19.45;73.52;100104.75;1733641;82;21038;-82
2021/05/29 14:27:31;;;;;;;0.42;0.30;;;;;;;19.50;72.96;100114.21;1732619;82;21042;-82
2021/05/29 14:29:57;;;;;;;0.40;0.40;;;;;;;19.54;72.09;100119.30;1732613;82;21050;-82
2021/05/29 14:32:24;;;;;;;0.37;0.37;;;;;;;19.55;71.89;100118.13;1732755;82;21003;-81
2021/05/29 14:34:53;;;;;;;0.30;0.30;;;;;;;19.55;71.89;100118.13;1732867;82;21089;-81
2021/05/29 14:37:18;;;;;;;0.28;0.28;;;;;;;19.58;71.80;100118.81;1733282;81;21037;-82
2021/05/29 14:39:45;;;;;;;0.37;0.37;;;;;;;19.58;71.80;100118.81;1733116;82;21010;-82
2021/05/29 14:42:12;;;;;;;0.40;0.40;;;;;;;19.63;71.87;100117.77;1735121;82;21026;-82
2021/05/29 14:44:39;;;;;;;0.65;0.42;;;;;;;19.65;72.54;100119.04;1733505;81;21034;-82
2021/05/29 14:47:07;;;;;;;0.93;0.50;;;;;;;19.70;73.13;100117.44;1733027;82;21015;-81
2021/05/29 14:49:34;;;;;;;0.33;0.33;;;;;;;19.72;72.65;100110.98;1732824;82;21034;-82
2021/05/29 14:52:03;;;;;;;1.75;0.30;;;;;;;19.76;73.23;100116.06;1712506;82;21050;-82
2021/05/29 14:54:30;;;;;;;1.17;0.40;;;;;;;19.77;73.03;100115.48;1732616;81;21030;-82
2021/05/29 14:56:57;;;;;;;0.85;0.60;;;;;;;19.76;72.69;100118.03;1732554;81;21034;-82
2021/05/29 14:59:23;;;;;;;0.28;0.28;;;;;;;19.78;72.04;100114.89;1732849;82;21090;-82
2021/05/29 15:01:50;;;;;;;0.42;0.42;;;;;;;19.74;71.30;100118.37;1732530;82;21030;-82
2021/05/29 15:04:19;;;;;;;0.40;0.37;;;;;;;19.73;71.13;100117.32;1732796;81;21051;-82
2021/05/29 15:06:44;;;;;;;0.98;0.62;;;;;;;19.73;71.60;100119.54;1733304;82;21058;-82
2021/05/29 15:09:12;;;;;;;0.20;0.20;;;;;;;19.76;71.29;100129.92;1711913;82;21073;-82
2021/05/29 15:11:40;;;;;;;0.42;0.42;;;;;;;19.75;71.53;100128.29;1732574;82;21097;-82
2021/05/29 15:14:06;;;;;;;0.30;0.30;;;;;;;19.72;70.79;100131.77;1732590;82;21035;-82
2021/05/29 15:16:33;;;;;;;0.47;0.47;;;;;;;19.65;70.06;100139.83;1732847;82;21050;-82
2021/05/29 15:18:59;;;;;;;0.23;0.20;;;;;;;19.39;70.68;100138.81;1732865;82;21014;-82
2021/05/29 15:21:28;;;;;;;0.35;0.33;;;;;;;19.39;70.68;100138.81;1732622;82;21647;-82
2021/05/29 15:23:59;;;;;;;0.35;0.35;;;;;;;19.30;70.84;100138.91;1711557;82;21042;-82
2021/05/29 15:26:33;;;;;;;0.25;0.25;;;;;;;19.23;70.52;100141.45;1732393;82;21046;-82
2021/05/29 15:28:55;;;;;;;0.55;0.28;;;;;;;19.15;70.53;100142.37;1731595;82;21058;-82
2021/05/29 15:31:22;;;;;;;3.22;1.90;;;;;;;19.11;71.38;100137.28;1713014;82;21050;-81
2021/05/29 15:33:50;;;;;;;0.75;0.40;;;;;;;19.06;70.95;100141.66;1732579;82;21011;-81
2021/05/29 15:36:17;;;;;;;0.20;0.20;;;;;;;19.01;71.92;100133.00;1732598;82;21543;-82
2021/05/29 15:38:43;;;;;;;0.20;0.20;;;;;;;19.00;71.81;100135.55;1732259;82;21359;-82
2021/05/29 15:41:11;;;;;;;0.75;0.50;;;;;;;19.01;72.40;100139.12;1732688;82;21546;-81
2021/05/29 15:43:37;;;;;;;0.20;0.20;;;;;;;19.01;72.29;100139.12;1732765;81;21563;-81
2021/05/29 15:46:04;;;;;;;0.93;0.60;;;;;;;18.94;72.34;100133.34;1732895;81;21014;-82
2021/05/29 15:48:31;;;;;;;0.20;0.20;;;;;;;18.91;72.21;100130.68;1732465;82;21626;-82
2021/05/29 15:51:01;;;;;;;0.30;0.30;;;;;;;18.87;72.02;100136.11;1733466;81;21038;-81
2021/05/29 15:53:33;;;;;;;0.33;0.30;;;;;;;18.85;72.25;100140.38;1732708;81;21674;-82
2021/05/29 15:56:03;;;;;;;0.40;0.40;;;;;;;18.84;71.99;100146.48;1732552;82;21050;-82
2021/05/29 15:58:30;;;;;;;0.37;0.35;;;;;;;18.82;72.47;100144.63;1735230;82;21063;-82
2021/05/29 16:00:59;;;;;;;0.30;0.30;;;;;;;18.79;72.98;100139.78;1732710;81;21069;-81
2021/05/29 16:03:25;;;;;;;0.68;0.65;;;;;;;18.77;73.18;100136.55;1733213;81;21082;-82
2021/05/29 16:05:54;;;;;;;0.40;0.40;;;;;;;18.76;73.59;100137.68;1732685;82;21109;-82
2021/05/29 16:08:21;;;;;;;0.30;0.25;;;;;;;18.77;72.39;100132.39;1679633;84;21081;-82
2021/05/29 16:10:47;;;;;;;0.47;0.47;;;;;;;18.76;72.26;100133.53;1687163;84;21063;-82
2021/05/29 16:13:14;;;;;;;0.70;0.70;;;;;;;18.76;72.37;100139.06;1733138;82;21090;-82
2021/05/29 16:15:42;;;;;;;0.20;0.20;;;;;;;18.75;72.35;100148.50;1732720;82;21591;-82
2021/05/29 16:18:09;;;;;;;0.50;0.30;;;;;;;18.74;72.19;100148.25;1712177;82;21061;-81
2021/05/29 16:20:35;;;;;;;0.28;0.28;;;;;;;18.74;72.04;100146.86;1671908;85;21052;-82
2021/05/29 16:23:06;;;;;;;0.25;0.25;;;;;;;18.72;71.69;100145.04;1719085;82;21433;-81
2021/05/29 16:25:33;;;;;;;0.47;0.47;;;;;;;18.69;71.65;100149.30;1733086;81;21559;-82
2021/05/29 16:28:01;;;;;;;0.37;0.37;;;;;;;18.68;71.61;100145.48;1732583;82;21038;-81
2021/05/29 16:30:27;;;;;;;1.00;0.50;;;;;;;18.67;71.54;100147.44;1734992;82;21212;-81
2021/05/29 16:32:56;;;;;;;0.40;0.40;;;;;;;18.67;72.02;100145.26;1732871;82;21046;-82
2021/05/29 16:35:26;;;;;;;0.50;0.50;;;;;;;18.61;72.04;100138.30;1732823;81;21027;-82
2021/05/29 16:37:53;;;;;;;1.75;0.55;;;;;;;18.57;72.44;100141.51;1732817;82;21058;-82
2021/05/29 16:40:24;;;;;;;0.70;0.70;;;;;;;18.53;72.75;100140.59;1733274;81;21027;-82
2021/05/29 16:42:51;;;;;;;1.30;0.55;;;;;;;18.48;73.01;100147.14;1733625;82;21078;-81
2021/05/29 16:45:18;;;;;;;1.22;0.40;;;;;;;18.42;73.19;100142.41;1732930;81;21590;-81
2021/05/29 16:47:45;;;;;;;0.95;0.40;;;;;;;18.39;73.63;100145.82;1732773;82;21010;-82
2021/05/29 16:50:12;;;;;;;1.32;0.45;;;;;;;18.37;73.65;100148.70;1732996;82;21050;-82
2021/05/29 16:52:38;;;;;;;0.35;0.35;;;;;;;18.32;73.93;100146.14;1732778;82;21010;-81
2021/05/29 16:55:07;;;;;;;0.13;0.13;;;;;;;18.24;74.15;100147.25;1734202;82;21045;-81
2021/05/29 16:57:33;;;;;;;0.53;0.40;;;;;;;18.19;74.36;100145.28;1733463;81;21034;-81
2021/05/29 17:00:03;;;;;;;0.47;0.40;;;;;;;18.13;74.54;100141.11;1732806;82;21066;-82
2021/05/29 17:02:30;;;;;;;0.42;0.40;;;;;;;18.09;74.89;100146.48;1732777;81;21528;-81
2021/05/29 17:04:56;;;;;;;0.50;0.50;;;;;;;18.05;74.94;100147.75;1732743;82;21003;-81
2021/05/29 17:07:25;;;;;;;0.30;0.30;;;;;;;18.02;75.12;100146.22;1732821;81;21033;-81
2021/05/29 17:09:51;;;;;;;1.98;0.50;;;;;;;17.98;75.24;100147.48;1732732;82;21018;-82
2021/05/29 17:12:25;;;;;;;0.33;0.25;;;;;;;17.94;75.54;100151.25;1732793;81;21037;-81
2021/05/29 17:14:46;;;;;;;0.37;0.30;;;;;;;17.90;75.86;100151.09;1731741;82;21049;-81
2021/05/29 17:17:13;;;;;;;0.57;0.25;;;;;;;17.86;76.09;100154.31;1732791;81;21665;-81
2021/05/29 17:19:40;;;;;;;0.30;0.30;;;;;;;17.82;76.42;100150.01;1734704;82;21004;-82
2021/05/29 17:22:06;;;;;;;0.60;0.60;;;;;;;17.79;76.52;100156.77;1732480;82;21050;-81
2021/05/29 17:24:33;;;;;;;0.30;0.30;;;;;;;17.75;76.81;100165.47;1732526;82;21558;-82
2021/05/29 17:27:00;;;;;;;0.40;0.40;;;;;;;17.69;76.94;100159.34;1732639;82;21590;-82
2021/05/29 17:29:29;;;;;;;0.60;0.57;;;;;;;17.65;77.03;100163.09;1732582;81;21050;-82
2021/05/29 17:31:56;;;;;;;0.50;0.50;;;;;;;17.62;77.29;100171.48;1732583;82;21029;-82
2021/05/29 17:34:23;;;;;;;0.70;0.40;;;;;;;17.57;77.46;100166.95;1732990;82;21085;-81
2021/05/29 17:36:49;;;;;;;0.40;0.40;;;;;;;17.54;77.76;100160.72;1732721;82;21511;-81
2021/05/29 17:39:18;;;;;;;0.82;0.55;;;;;;;17.50;78.09;100162.52;1732677;82;21074;-81
2021/05/29 17:41:44;;;;;;;0.55;0.50;;;;;;;17.46;78.41;100165.73;1732461;82;21046;-81
2021/05/29 17:44:13;;;;;;;2.30;1.82;;;;;;;17.43;78.62;100158.09;1733496;81;21081;-82
2021/05/29 17:46:40;;;;;;;3.37;1.92;;;;;;;17.40;78.60;100168.42;1733755;82;21050;-82
2021/05/29 17:49:07;;;;;;;0.70;0.68;;;;;;;17.36;78.51;100168.30;1732980;81;21026;-82
2021/05/29 17:51:34;;;;;;;1.07;0.40;;;;;;;17.32;78.55;100166.52;1732713;82;21053;-81
2021/05/29 17:54:01;;;;;;;0.40;0.40;;;;;;;17.30;78.45;100169.60;1732706;81;21705;-82
2021/05/29 17:56:28;;;;;;;0.60;0.60;;;;;;;17.26;78.48;100169.21;1733153;82;21014;-82
2021/05/29 18:01:24;;;;;;;0.42;0.40;;;;;;;17.16;78.31;100170.38;1732753;81;21066;-81
2021/05/29 18:03:51;;;;;;;0.53;0.53;;;;;;;17.12;78.36;100175.77;1733079;81;21665;-82
2021/05/29 18:06:17;;;;;;;0.90;0.85;;;;;;;17.06;78.25;100173.50;1732885;81;21074;-81
2021/05/29 18:08:44;;;;;;;4.53;3.25;;;;;;;17.01;78.13;100168.97;1733204;81;21062;-83
2021/05/29 18:11:11;;;;;;;11.95;3.70;;;;;;;16.95;78.27;100175.82;1732379;82;21062;-82
2021/05/29 18:13:43;;;;;;;4.45;2.15;;;;;;;16.89;78.45;100181.26;1733374;81;21046;-82
2021/05/29 18:16:06;;;;;;;2.65;2.17;;;;;;;16.82;78.51;100178.22;1733136;80;21546;-82
2021/05/29 18:18:33;;;;;;;1.87;1.35;;;;;;;16.74;78.76;100184.77;1734085;82;21041;-82
2021/05/29 18:21:00;;;;;;;1.25;1.07;;;;;;;16.66;78.98;100178.67;1732584;81;21876;-82
2021/05/29 18:23:26;;;;;;;0.72;0.62;;;;;;;16.61;79.17;100187.70;1733524;81;21019;-82
2021/05/29 18:25:53;;;;;;;0.68;0.25;;;;;;;16.54;79.51;100181.28;1732489;82;21951;-82
2021/05/29 18:28:20;;;;;;;0.30;0.30;;;;;;;16.48;79.71;100186.74;1732595;82;21058;-83
2021/05/29 18:30:46;;;;;;;0.35;0.35;;;;;;;16.44;79.88;100192.66;1732756;81;21555;-82
2021/05/29 18:33:12;;;;;;;0.37;0.37;;;;;;;16.40;80.05;100188.38;1733282;82;21038;-83
2021/05/29 18:35:42;;;;;;;2.15;0.90;;;;;;;16.39;80.26;100181.78;1713308;82;21061;-82
2021/05/29 18:40:53;;;;;;;0.42;0.42;;;;;;;16.34;80.73;100180.00;1732585;82;21653;-83
2021/05/29 18:43:22;;;;;;;0.33;0.33;;;;;;;16.31;81.08;100188.35;1732735;81;21029;-82
2021/05/29 18:45:49;;;;;;;0.85;0.72;;;;;;;16.27;81.37;100181.05;1712216;81;21034;-82
2021/05/29 18:48:16;;;;;;;0.62;0.62;;;;;;;16.22;81.72;100177.91;1710448;83;21041;-82
2021/05/29 18:50:55;;;;;;;0.28;0.28;;;;;;;16.16;82.08;100175.63;1706777;83;21021;-82
2021/05/29 18:53:12;;;;;;;0.93;0.37;;;;;;;16.09;82.42;100185.75;1707323;81;21112;-83
2021/05/29 18:55:38;;;;;;;0.78;0.78;;;;;;;16.02;82.80;100185.41;1706411;83;21089;-82
2021/05/29 18:58:09;;;;;;;2.92;1.00;;;;;;;15.92;83.20;100179.64;1708796;83;21006;-82
2021/05/29 19:03:19;;;;;;;1.65;0.93;;;;;;;15.74;84.15;100187.06;1708555;83;20998;-82
2021/05/29 19:11:16;;;;;;;0.85;0.75;;;;;;;15.45;85.96;100169.16;1707433;82;21062;-83
2021/05/29 19:13:43;;;;;;;1.00;1.00;;;;;;;15.34;86.57;100174.69;1707041;83;21097;-82
2021/05/29 19:16:09;;;;;;;1.92;1.50;;;;;;;15.24;87.15;100176.34;1706546;83;21041;-82
2021/05/29 19:18:36;;;;;;;1.62;1.25;;;;;;;15.13;87.79;100179.92;1708183;83;21023;-82
2021/05/29 19:21:03;;;;;;;1.47;1.37;;;;;;;15.06;88.40;100183.72;1709558;83;21054;-82
2021/05/29 19:23:33;;;;;;;3.37;1.50;;;;;;;14.96;89.10;100171.04;1709266;82;21049;-82
2021/05/29 19:28:43;;;;;;;1.77;0.95;;;;;;;14.78;90.43;100187.98;1706180;83;20994;-82
2021/05/29 19:31:10;;;;;;;1.92;1.05;;;;;;;14.69;91.10;100184.92;1708771;83;21023;-82
2021/05/29 19:39:04;;;;;;;2.65;1.62;;;;;;;14.43;92.85;100184.72;1706470;83;21081;-81
2021/05/29 19:41:31;;;;;;;2.25;1.65;;;;;;;14.31;93.46;100181.95;1708630;82;21026;-82
2021/05/29 20:27:09;;;;;;;0.72;0.60;;;;;;;13.99;100.00;100200.81;1722663;82;21043;-82
2021/05/29 20:29:35;;;;;;;0.57;0.50;;;;;;;14.00;100.00;100202.46;1722024;82;21089;-82